Time;durP1;ratioP1;P1;durP2;ratioP2;P2;SDS_P1;SDS_P2;PMS_P1;PMS_P2;Temp;Humidity;BMP_temperature;BMP_pressure;BME280_temperature;BME280_humidity;BME280_pressure;Samples;Min_cycle;Max_cycle;Signal;HPM_P1;HPM_P2
2022/01/24 00:01:20;;;;;;;;;53.67;43.33;;;;;;;;5017511;28;45080;-77
2022/01/24 00:03:45;;;;;;;;;54.00;43.75;;;;;;;;5007508;28;45025;-77
2022/01/24 00:06:14;;;;;;;;;49.33;42.00;;;;;;;;5007242;28;45141;-79
2022/01/24 00:08:39;;;;;;;;;48.50;42.50;;;;;;;;5007707;28;45109;-77
2022/01/24 00:11:15;;;;;;;;;58.67;47.33;;;;;;;;5007854;28;45333;-79
2022/01/24 00:16:23;;;;;;;;;51.00;44.25;;;;;;;;5007815;28;45038;-77
2022/01/24 00:26:47;;;;;;;;;57.50;42.75;;;;;;;;4995100;28;45254;-78
2022/01/24 00:29:16;;;;;;;;;48.25;39.25;;;;;;;;5008067;28;45206;-79
2022/01/24 00:31:41;;;;;;;;;53.50;42.25;;;;;;;;5007406;28;46586;-77
2022/01/24 00:34:07;;;;;;;;;50.33;42.00;;;;;;;;5007833;28;45143;-78
2022/01/24 00:36:32;;;;;;;;;50.00;43.33;;;;;;;;5006816;28;45157;-77
2022/01/24 00:38:57;;;;;;;;;46.25;41.75;;;;;;;;5007675;28;45175;-79
2022/01/24 00:41:23;;;;;;;;;44.00;40.33;;;;;;;;5007711;28;45365;-77
2022/01/24 00:44:25;;;;;;;;;45.25;39.50;;;;;;;;5007257;28;45170;-79
2022/01/24 00:46:40;;;;;;;;;50.25;41.75;;;;;;;;4995821;28;45260;-77
2022/01/24 00:54:47;;;;;;;;;56.75;43.00;;;;;;;;5010684;28;45227;-79
2022/01/24 00:57:12;;;;;;;;;49.50;42.25;;;;;;;;5010777;28;45244;-78
2022/01/24 00:59:38;;;;;;;;;49.33;42.33;;;;;;;;5010918;28;45108;-77
2022/01/24 01:02:04;;;;;;;;;48.33;39.33;;;;;;;;5011079;28;45394;-79
2022/01/24 01:04:40;;;;;;;;;49.75;42.75;;;;;;;;5008004;28;45164;-78
2022/01/24 01:07:07;;;;;;;;;48.50;41.00;;;;;;;;4993655;28;45341;-79
2022/01/24 01:20:34;;;;;;;;;43.50;38.50;;;;;;;;5010666;28;45004;-77
2022/01/24 01:22:59;;;;;;;;;45.00;39.25;;;;;;;;5010638;28;45854;-79
2022/01/24 01:25:25;;;;;;;;;42.00;37.67;;;;;;;;5010488;28;45254;-78
2022/01/24 01:27:52;;;;;;;;;40.67;37.00;;;;;;;;5010121;28;45202;-79
2022/01/24 01:30:22;;;;;;;;;47.25;41.75;;;;;;;;5007975;28;45490;-78
2022/01/24 01:33:08;;;;;;;;;45.50;40.25;;;;;;;;5010056;28;45792;-78
2022/01/24 01:54:24;;;;;;;;;52.00;39.25;;;;;;;;5009480;28;45440;-78
2022/01/24 01:56:49;;;;;;;;;43.00;39.00;;;;;;;;5004763;28;45423;-76
2022/01/24 01:59:14;;;;;;;;;43.33;40.00;;;;;;;;5010162;28;45171;-78
2022/01/24 02:01:40;;;;;;;;;41.33;36.00;;;;;;;;5010275;28;45225;-76
2022/01/24 02:04:05;;;;;;;;;35.33;33.33;;;;;;;;5006443;28;46495;-78
2022/01/24 02:06:31;;;;;;;;;40.75;35.50;;;;;;;;5009721;28;45168;-76
2022/01/24 02:08:57;;;;;;;;;45.00;39.50;;;;;;;;5009660;28;45388;-78
2022/01/24 02:11:22;;;;;;;;;42.50;37.75;;;;;;;;5009752;28;45303;-76
2022/01/24 02:13:48;;;;;;;;;41.00;35.33;;;;;;;;5009925;28;46340;-78
2022/01/24 02:16:32;;;;;;;;;41.50;36.50;;;;;;;;5009967;28;45097;-79
2022/01/24 02:19:29;;;;;;;;;43.50;38.00;;;;;;;;5008639;28;45286;-79
2022/01/24 02:24:10;;;;;;;;;40.00;37.00;;;;;;;;5008953;28;45390;-77
2022/01/24 02:26:35;;;;;;;;;45.75;39.75;;;;;;;;5008839;28;45377;-77
2022/01/24 02:31:47;;;;;;;;;46.75;41.00;;;;;;;;5009609;28;45218;-78
2022/01/24 02:34:29;;;;;;;;;37.75;34.00;;;;;;;;5007113;28;45305;-78
2022/01/24 02:36:57;;;;;;;;;45.50;40.75;;;;;;;;5008369;28;45232;-77
2022/01/24 02:50:16;;;;;;;;;52.00;41.00;;;;;;;;4968280;28;45030;-77
2022/01/24 02:52:41;;;;;;;;;48.50;39.25;;;;;;;;5009621;28;45288;-77
2022/01/24 02:55:06;;;;;;;;;44.33;39.67;;;;;;;;5008178;28;45702;-78
2022/01/24 02:57:31;;;;;;;;;38.67;35.00;;;;;;;;5008482;28;45102;-77
2022/01/24 02:59:57;;;;;;;;;49.33;40.33;;;;;;;;5008965;28;45002;-77
2022/01/24 03:02:22;;;;;;;;;38.33;31.67;;;;;;;;5021329;28;45075;-79
2022/01/24 03:04:47;;;;;;;;;41.67;34.67;;;;;;;;5028978;28;45712;-76
2022/01/24 03:07:12;;;;;;;;;42.67;40.00;;;;;;;;5011468;28;45198;-77
2022/01/24 03:09:37;;;;;;;;;44.67;38.67;;;;;;;;5008862;28;45162;-77
2022/01/24 03:12:11;;;;;;;;;42.33;37.33;;;;;;;;5009115;28;45388;-77
2022/01/24 03:14:37;;;;;;;;;49.00;41.50;;;;;;;;5009157;28;45272;-78
2022/01/24 03:17:03;;;;;;;;;47.00;38.75;;;;;;;;5008383;28;45113;-78
2022/01/24 03:19:28;;;;;;;;;47.25;40.25;;;;;;;;5009271;28;44939;-79
2022/01/24 03:21:54;;;;;;;;;38.00;37.00;;;;;;;;5008064;28;45319;-79
2022/01/24 03:24:19;;;;;;;;;47.75;40.75;;;;;;;;5008405;28;45534;-77
2022/01/24 03:26:45;;;;;;;;;40.00;35.67;;;;;;;;5009143;28;44998;-78
2022/01/24 03:29:10;;;;;;;;;41.00;37.25;;;;;;;;5008674;28;45155;-78
2022/01/24 03:31:36;;;;;;;;;49.50;41.50;;;;;;;;5008723;28;45286;-79
2022/01/24 03:34:01;;;;;;;;;43.75;36.25;;;;;;;;5008897;28;46361;-79
2022/01/24 03:36:26;;;;;;;;;41.25;31.75;;;;;;;;5007684;28;44987;-77
2022/01/24 03:38:52;;;;;;;;;42.67;38.00;;;;;;;;5008654;28;45102;-78
2022/01/24 03:41:17;;;;;;;;;39.00;37.33;;;;;;;;5008880;28;45451;-76
2022/01/24 03:43:42;;;;;;;;;33.33;32.00;;;;;;;;5008391;28;45484;-79
2022/01/24 03:48:50;;;;;;;;;37.75;36.25;;;;;;;;4992789;28;45652;-77
2022/01/24 03:51:15;;;;;;;;;39.50;35.75;;;;;;;;5008197;28;45371;-78
2022/01/24 03:53:41;;;;;;;;;39.25;36.75;;;;;;;;5007902;28;45449;-78
2022/01/24 03:56:07;;;;;;;;;43.00;38.00;;;;;;;;5007664;28;45564;-76
2022/01/24 03:58:32;;;;;;;;;37.50;36.00;;;;;;;;5008582;28;45351;-79
2022/01/24 04:00:58;;;;;;;;;42.25;37.50;;;;;;;;5008049;28;45188;-79
2022/01/24 04:03:24;;;;;;;;;44.25;40.25;;;;;;;;5008084;28;45898;-77
2022/01/24 04:05:49;;;;;;;;;40.00;36.67;;;;;;;;5007221;28;45107;-76
2022/01/24 04:08:14;;;;;;;;;38.00;36.33;;;;;;;;5007769;28;45125;-77
2022/01/24 04:10:52;;;;;;;;;36.00;33.33;;;;;;;;5008319;28;45114;-77
2022/01/24 04:15:57;;;;;;;;;45.25;39.00;;;;;;;;5007426;28;45181;-78
2022/01/24 04:18:36;;;;;;;;;42.50;38.25;;;;;;;;5008320;28;45196;-79
2022/01/24 04:21:24;;;;;;;;;42.75;36.00;;;;;;;;5007358;28;45282;-79
2022/01/24 04:24:02;;;;;;;;;41.00;35.75;;;;;;;;5007136;28;46771;-79
2022/01/24 04:26:27;;;;;;;;;44.25;35.00;;;;;;;;4988908;28;45177;-77
2022/01/24 04:28:53;;;;;;;;;39.50;36.00;;;;;;;;5004982;28;45146;-79
2022/01/24 04:31:18;;;;;;;;;44.33;37.00;;;;;;;;5006850;28;45158;-78
2022/01/24 04:33:43;;;;;;;;;37.00;31.75;;;;;;;;5007556;28;45254;-78
2022/01/24 04:36:08;;;;;;;;;38.67;35.33;;;;;;;;5007301;28;45139;-79
2022/01/24 04:38:34;;;;;;;;;47.33;41.33;;;;;;;;5007472;28;45369;-77
2022/01/24 04:41:04;;;;;;;;;37.00;34.67;;;;;;;;5008143;28;45170;-78
2022/01/24 04:43:47;;;;;;;;;44.50;39.00;;;;;;;;5008054;28;46111;-77
2022/01/24 04:46:29;;;;;;;;;43.50;36.00;;;;;;;;5006097;28;45353;-78
2022/01/24 04:54:38;;;;;;;;;39.25;35.50;;;;;;;;5015947;28;45805;-77
2022/01/24 04:57:01;;;;;;;;;39.00;35.75;;;;;;;;4997374;28;45396;-79
2022/01/24 04:59:26;;;;;;;;;41.67;36.00;;;;;;;;4989834;28;45205;-77
2022/01/24 05:01:51;;;;;;;;;41.33;34.33;;;;;;;;5007006;28;45550;-79
2022/01/24 05:04:16;;;;;;;;;38.67;38.00;;;;;;;;4989689;28;47401;-76
2022/01/24 05:06:42;;;;;;;;;36.00;33.00;;;;;;;;5006638;28;45417;-78
2022/01/24 05:09:07;;;;;;;;;34.67;32.33;;;;;;;;4988447;28;45375;-77
2022/01/24 05:11:49;;;;;;;;;42.00;36.50;;;;;;;;5008219;28;45415;-77
2022/01/24 05:25:10;;;;;;;;;33.25;28.75;;;;;;;;5006788;28;45126;-77
2022/01/24 05:27:36;;;;;;;;;38.33;37.67;;;;;;;;5006483;28;46504;-79
2022/01/24 05:30:01;;;;;;;;;43.00;38.67;;;;;;;;5006548;28;45149;-79
2022/01/24 05:32:26;;;;;;;;;36.67;32.33;;;;;;;;5010799;28;45199;-77
2022/01/24 05:34:51;;;;;;;;;33.00;33.00;;;;;;;;5009713;28;45221;-77
2022/01/24 05:37:16;;;;;;;;;32.00;29.67;;;;;;;;4991753;28;45187;-78
2022/01/24 05:39:42;;;;;;;;;40.33;34.00;;;;;;;;5010749;28;45140;-79
2022/01/24 05:42:07;;;;;;;;;34.00;29.00;;;;;;;;4992891;28;45144;-76
2022/01/24 05:44:32;;;;;;;;;38.00;34.67;;;;;;;;5010328;28;45592;-78
2022/01/24 05:46:57;;;;;;;;;38.67;33.00;;;;;;;;4991312;28;45330;-78
2022/01/24 05:49:23;;;;;;;;;39.67;34.00;;;;;;;;5010959;28;45108;-77
2022/01/24 05:51:48;;;;;;;;;42.33;37.00;;;;;;;;5010199;28;45284;-78
2022/01/24 05:54:13;;;;;;;;;37.67;36.67;;;;;;;;5009810;28;45222;-79
2022/01/24 05:56:38;;;;;;;;;37.00;32.00;;;;;;;;4991756;28;45373;-78
2022/01/24 05:59:03;;;;;;;;;34.33;28.00;;;;;;;;5004780;28;45089;-78
2022/01/24 06:01:29;;;;;;;;;43.00;36.67;;;;;;;;5009834;28;45220;-80
2022/01/24 06:03:54;;;;;;;;;38.67;33.00;;;;;;;;5009789;28;45795;-80
2022/01/24 06:06:19;;;;;;;;;40.33;34.67;;;;;;;;5010370;28;45450;-80
2022/01/24 06:08:44;;;;;;;;;37.67;33.67;;;;;;;;5009120;28;45343;-79
2022/01/24 06:11:09;;;;;;;;;42.67;38.00;;;;;;;;4992063;28;45316;-80
2022/01/24 06:13:35;;;;;;;;;39.33;33.67;;;;;;;;5009814;28;45823;-76
2022/01/24 06:16:00;;;;;;;;;36.67;35.00;;;;;;;;4991040;28;45048;-79
2022/01/24 06:18:25;;;;;;;;;41.67;38.33;;;;;;;;5010631;28;45119;-77
2022/01/24 06:20:51;;;;;;;;;45.75;41.25;;;;;;;;4990829;28;45252;-79
2022/01/24 06:23:17;;;;;;;;;36.75;34.00;;;;;;;;5009546;28;46010;-79
2022/01/24 06:25:43;;;;;;;;;41.50;38.25;;;;;;;;5007791;28;45400;-79
2022/01/24 06:28:08;;;;;;;;;42.75;39.00;;;;;;;;5007198;28;45194;-79
2022/01/24 06:30:33;;;;;;;;;39.50;36.50;;;;;;;;5007952;28;45286;-76
2022/01/24 06:32:58;;;;;;;;;43.33;35.00;;;;;;;;4992900;28;46167;-77
2022/01/24 06:35:24;;;;;;;;;32.33;23.33;;;;;;;;4992515;28;45822;-78
2022/01/24 06:37:49;;;;;;;;;35.25;32.00;;;;;;;;5002421;28;45064;-76
2022/01/24 06:40:15;;;;;;;;;40.33;35.00;;;;;;;;5009674;28;45155;-77
2022/01/24 06:42:40;;;;;;;;;41.67;40.33;;;;;;;;5008043;28;45934;-77
2022/01/24 06:45:06;;;;;;;;;40.50;38.25;;;;;;;;5018652;28;45132;-80
2022/01/24 06:47:31;;;;;;;;;42.00;37.50;;;;;;;;5025519;28;45221;-80
2022/01/24 06:49:56;;;;;;;;;51.33;42.00;;;;;;;;5009707;28;45307;-77
2022/01/24 06:52:22;;;;;;;;;44.33;38.33;;;;;;;;5008411;28;46264;-76
2022/01/24 06:54:47;;;;;;;;;37.25;33.25;;;;;;;;5009029;28;45117;-77
2022/01/24 06:57:14;;;;;;;;;37.25;36.75;;;;;;;;5002533;28;45400;-77
2022/01/24 06:59:42;;;;;;;;;44.00;35.75;;;;;;;;4990307;28;45476;-77
2022/01/24 07:02:08;;;;;;;;;38.25;35.00;;;;;;;;4997977;28;46010;-79
2022/01/24 07:04:36;;;;;;;;;36.50;33.50;;;;;;;;4991578;28;45467;-77
2022/01/24 07:07:02;;;;;;;;;43.50;37.00;;;;;;;;4989779;28;45491;-79
2022/01/24 07:09:27;;;;;;;;;37.00;36.00;;;;;;;;4991059;28;45635;-76
2022/01/24 07:11:53;;;;;;;;;41.00;37.67;;;;;;;;4992046;28;46081;-77
2022/01/24 07:14:18;;;;;;;;;38.25;37.00;;;;;;;;4990304;28;45489;-81
2022/01/24 07:19:15;;;;;;;;;47.50;43.50;;;;;;;;4993248;28;45325;-77
2022/01/24 07:21:40;;;;;;;;;42.00;38.00;;;;;;;;4989875;28;46086;-80
2022/01/24 07:24:05;;;;;;;;;48.33;43.67;;;;;;;;4990718;28;45473;-78
2022/01/24 07:26:31;;;;;;;;;42.67;39.00;;;;;;;;4990518;28;45510;-77
2022/01/24 07:28:56;;;;;;;;;40.25;38.00;;;;;;;;4990159;28;45496;-77
2022/01/24 07:31:22;;;;;;;;;34.33;33.00;;;;;;;;4990561;28;45427;-76
2022/01/24 07:33:47;;;;;;;;;42.00;37.00;;;;;;;;4989854;28;45609;-76
2022/01/24 07:36:12;;;;;;;;;43.00;36.33;;;;;;;;4992685;28;45485;-82
2022/01/24 07:38:37;;;;;;;;;46.00;39.67;;;;;;;;4991404;28;45358;-81
2022/01/24 07:41:03;;;;;;;;;54.00;44.67;;;;;;;;4996920;28;45433;-79
2022/01/24 07:43:28;;;;;;;;;48.00;41.67;;;;;;;;4980985;28;45640;-80
2022/01/24 07:45:54;;;;;;;;;49.25;42.50;;;;;;;;4990558;28;45696;-81
2022/01/24 07:48:20;;;;;;;;;53.50;44.50;;;;;;;;4984163;28;45657;-92
2022/01/24 07:50:47;;;;;;;;;52.00;44.00;;;;;;;;4986157;28;46855;-78
2022/01/24 07:53:16;;;;;;;;;61.50;48.50;;;;;;;;4992444;28;45684;-94
2022/01/24 07:55:42;;;;;;;;;49.25;43.25;;;;;;;;4978362;28;45603;-80
2022/01/24 07:58:07;;;;;;;;;64.50;51.75;;;;;;;;4989571;28;45924;-81
2022/01/24 08:00:33;;;;;;;;;54.75;47.25;;;;;;;;4978354;28;46279;-82
2022/01/24 08:02:58;;;;;;;;;63.50;49.25;;;;;;;;4984093;28;46050;-78
2022/01/24 08:05:24;;;;;;;;;62.00;47.67;;;;;;;;4986818;28;45784;-78
2022/01/24 08:07:49;;;;;;;;;62.75;47.50;;;;;;;;4994532;28;45241;-82
2022/01/24 08:10:15;;;;;;;;;55.00;48.00;;;;;;;;4993280;28;45669;-82
2022/01/24 08:12:42;;;;;;;;;57.67;49.00;;;;;;;;4990622;28;45828;-81
2022/01/24 08:15:11;;;;;;;;;50.00;44.25;;;;;;;;4994894;28;45478;-78
2022/01/24 08:17:36;;;;;;;;;45.25;43.50;;;;;;;;5006438;28;45205;-79
2022/01/24 08:20:02;;;;;;;;;52.67;45.00;;;;;;;;4982233;28;47133;-79
2022/01/24 08:22:27;;;;;;;;;39.67;34.00;;;;;;;;5005741;28;45423;-79
2022/01/24 08:24:52;;;;;;;;;55.00;43.67;;;;;;;;5005929;28;45264;-77
2022/01/24 08:27:18;;;;;;;;;59.67;44.67;;;;;;;;5006461;28;45548;-79
2022/01/24 08:29:45;;;;;;;;;53.00;44.00;;;;;;;;5006736;28;45784;-80
2022/01/24 08:32:11;;;;;;;;;55.00;44.00;;;;;;;;5000168;28;45484;-76
2022/01/24 08:34:36;;;;;;;;;50.25;43.25;;;;;;;;5000933;28;45449;-79
2022/01/24 08:37:01;;;;;;;;;53.67;45.33;;;;;;;;4993948;28;45626;-77
2022/01/24 08:39:26;;;;;;;;;53.00;42.33;;;;;;;;5000787;28;45405;-85
2022/01/24 08:46:43;;;;;;;;;41.33;35.33;;;;;;;;5007987;28;45422;-77
2022/01/24 08:49:08;;;;;;;;;42.25;38.00;;;;;;;;5003334;28;45653;-77
2022/01/24 08:51:33;;;;;;;;;46.67;40.67;;;;;;;;5001314;28;46102;-82
2022/01/24 08:53:59;;;;;;;;;40.00;34.33;;;;;;;;5000053;28;45526;-80
2022/01/24 08:56:25;;;;;;;;;38.00;34.33;;;;;;;;5002718;28;45415;-80
2022/01/24 08:58:50;;;;;;;;;48.25;39.25;;;;;;;;5003726;28;45595;-81
2022/01/24 09:01:15;;;;;;;;;36.00;34.00;;;;;;;;4993651;28;45442;-81
2022/01/24 09:03:41;;;;;;;;;40.67;34.00;;;;;;;;5003703;28;45403;-79
2022/01/24 09:06:07;;;;;;;;;41.50;34.00;;;;;;;;5001651;28;45192;-79
2022/01/24 09:08:34;;;;;;;;;35.75;32.75;;;;;;;;4977306;28;46512;-81
2022/01/24 09:10:59;;;;;;;;;40.50;35.00;;;;;;;;4996259;28;45455;-79
2022/01/24 09:13:24;;;;;;;;;38.67;34.67;;;;;;;;5006251;28;45337;-82
2022/01/24 09:15:49;;;;;;;;;38.00;32.67;;;;;;;;5000085;28;45469;-83
2022/01/24 09:18:16;;;;;;;;;38.25;31.25;;;;;;;;4996050;28;45402;-77
2022/01/24 09:20:41;;;;;;;;;29.00;27.00;;;;;;;;5011041;28;45766;-81
2022/01/24 09:23:07;;;;;;;;;44.67;39.67;;;;;;;;5006610;28;45570;-81
2022/01/24 09:25:34;;;;;;;;;40.00;36.75;;;;;;;;4999613;28;45619;-77
2022/01/24 09:27:59;;;;;;;;;35.50;32.50;;;;;;;;5009661;28;45702;-79
2022/01/24 09:30:24;;;;;;;;;37.00;32.67;;;;;;;;5010865;28;45265;-79
2022/01/24 09:32:50;;;;;;;;;35.00;30.33;;;;;;;;5000590;28;45176;-75
2022/01/24 09:35:16;;;;;;;;;35.75;33.00;;;;;;;;4996525;28;45427;-83
2022/01/24 09:37:42;;;;;;;;;36.75;31.75;;;;;;;;4998233;28;45809;-82
2022/01/24 09:40:08;;;;;;;;;47.25;34.50;;;;;;;;4998257;28;45080;-81
2022/01/24 09:42:33;;;;;;;;;35.50;35.00;;;;;;;;4989990;28;45255;-78
2022/01/24 09:44:58;;;;;;;;;39.00;38.00;;;;;;;;4992521;28;45449;-77
2022/01/24 09:47:24;;;;;;;;;43.25;36.25;;;;;;;;4982472;28;47374;-78
2022/01/24 09:49:50;;;;;;;;;41.33;36.67;;;;;;;;4988231;28;45589;-80
2022/01/24 09:52:16;;;;;;;;;37.75;33.75;;;;;;;;4972605;28;45932;-81
2022/01/24 09:54:41;;;;;;;;;42.75;39.25;;;;;;;;4972827;28;45642;-84
2022/01/24 09:57:06;;;;;;;;;42.33;37.33;;;;;;;;4972013;28;45595;-83
2022/01/24 09:59:32;;;;;;;;;42.00;39.00;;;;;;;;4977685;28;45696;-75
2022/01/24 10:01:57;;;;;;;;;44.67;36.00;;;;;;;;4985226;28;45657;-83
2022/01/24 10:04:25;;;;;;;;;39.25;34.00;;;;;;;;4996336;28;45472;-77
2022/01/24 10:06:59;;;;;;;;;45.25;40.25;;;;;;;;4992692;28;45538;-80
2022/01/24 10:09:30;;;;;;;;;41.75;37.50;;;;;;;;4974823;28;45510;-76
2022/01/24 10:17:42;;;;;;;;;43.75;36.00;;;;;;;;4976489;28;45875;-76
2022/01/24 10:20:28;;;;;;;;;38.50;34.75;;;;;;;;4990871;28;45494;-76
2022/01/24 10:22:59;;;;;;;;;39.50;36.25;;;;;;;;4971106;28;45321;-80
2022/01/24 10:25:24;;;;;;;;;47.25;40.75;;;;;;;;4989747;28;45808;-85
2022/01/24 10:27:50;;;;;;;;;52.67;41.67;;;;;;;;4988733;28;46502;-81
2022/01/24 10:30:16;;;;;;;;;39.33;34.33;;;;;;;;4972578;28;45447;-80
2022/01/24 10:32:47;;;;;;;;;43.00;35.00;;;;;;;;4973089;28;45492;-80
2022/01/24 10:35:28;;;;;;;;;47.75;39.25;;;;;;;;4990092;28;45477;-80
2022/01/24 10:38:18;;;;;;;;;32.00;30.50;;;;;;;;4989808;28;45408;-76
2022/01/24 10:41:39;;;;;;;;;40.25;36.75;;;;;;;;4990628;28;45471;-74
2022/01/24 10:43:33;;;;;;;;;45.25;35.75;;;;;;;;4982495;28;45486;-75
2022/01/24 10:45:59;;;;;;;;;33.75;32.75;;;;;;;;4999234;28;45856;-75
2022/01/24 10:48:28;;;;;;;;;50.50;40.25;;;;;;;;5007614;28;45931;-75
2022/01/24 10:51:07;;;;;;;;;38.25;35.25;;;;;;;;5008637;28;45460;-84
2022/01/24 10:53:45;;;;;;;;;37.50;35.50;;;;;;;;4998366;28;45378;-83
2022/01/24 10:56:28;;;;;;;;;44.25;39.25;;;;;;;;5004490;28;45149;-77
2022/01/24 10:58:57;;;;;;;;;35.50;33.00;;;;;;;;5005979;28;45307;-77
2022/01/24 11:01:27;;;;;;;;;38.25;37.25;;;;;;;;5002823;28;45285;-75
2022/01/24 11:04:05;;;;;;;;;31.00;27.25;;;;;;;;4995807;28;45441;-83
2022/01/24 11:06:33;;;;;;;;;41.00;36.25;;;;;;;;5000555;28;45509;-83
2022/01/24 11:09:15;;;;;;;;;36.00;33.25;;;;;;;;4995862;28;45655;-84
2022/01/24 11:11:42;;;;;;;;;38.50;36.75;;;;;;;;4993890;28;45689;-79
2022/01/24 11:14:09;;;;;;;;;49.00;40.75;;;;;;;;4990699;28;45412;-84
2022/01/24 11:16:35;;;;;;;;;52.75;41.25;;;;;;;;4990832;28;45624;-80
2022/01/24 11:19:01;;;;;;;;;44.00;39.00;;;;;;;;4986043;28;45642;-77
2022/01/24 11:21:33;;;;;;;;;47.25;39.00;;;;;;;;4989650;28;45551;-76
2022/01/24 11:24:00;;;;;;;;;42.50;38.75;;;;;;;;4989166;28;45514;-79
2022/01/24 11:26:26;;;;;;;;;38.75;35.75;;;;;;;;4989843;28;45388;-79
2022/01/24 11:28:51;;;;;;;;;36.00;31.00;;;;;;;;4989002;28;45932;-75
2022/01/24 11:31:19;;;;;;;;;38.25;36.00;;;;;;;;4990283;28;45517;-75
2022/01/24 11:33:52;;;;;;;;;42.00;34.00;;;;;;;;4990408;28;45791;-73
2022/01/24 11:36:19;;;;;;;;;38.75;36.00;;;;;;;;4990562;28;45701;-75
2022/01/24 11:38:45;;;;;;;;;42.00;33.50;;;;;;;;4989438;28;46158;-74
2022/01/24 11:41:25;;;;;;;;;34.25;29.75;;;;;;;;4989705;28;45909;-74
2022/01/24 11:43:53;;;;;;;;;37.50;35.00;;;;;;;;4989775;28;45851;-74
2022/01/24 11:46:30;;;;;;;;;34.00;31.75;;;;;;;;4991740;28;45351;-76
2022/01/24 11:49:22;;;;;;;;;38.50;32.25;;;;;;;;4993638;28;46191;-74
2022/01/24 11:51:49;;;;;;;;;36.50;31.50;;;;;;;;4982204;28;47589;-79
2022/01/24 11:54:44;;;;;;;;;26.50;25.25;;;;;;;;4981437;28;45898;-84
2022/01/24 11:57:15;;;;;;;;;38.75;35.00;;;;;;;;4991246;28;45550;-79
2022/01/24 11:59:40;;;;;;;;;31.75;30.00;;;;;;;;5008770;28;46016;-77
2022/01/24 12:02:09;;;;;;;;;34.50;30.50;;;;;;;;4980474;28;45435;-75
2022/01/24 12:04:53;;;;;;;;;32.75;30.25;;;;;;;;4985520;28;45536;-75
2022/01/24 12:07:20;;;;;;;;;35.75;31.75;;;;;;;;4990500;28;45702;-81
2022/01/24 12:09:46;;;;;;;;;28.75;27.00;;;;;;;;4989282;28;46629;-79
2022/01/24 12:12:34;;;;;;;;;29.50;26.00;;;;;;;;4977635;28;45423;-81
2022/01/24 12:15:00;;;;;;;;;35.00;31.75;;;;;;;;4983507;28;45569;-78
2022/01/24 12:17:44;;;;;;;;;28.67;27.67;;;;;;;;4990452;28;45555;-76
2022/01/24 12:20:48;;;;;;;;;29.25;25.50;;;;;;;;4989859;28;45441;-78
2022/01/24 12:23:16;;;;;;;;;35.50;31.50;;;;;;;;4908595;28;45971;-76
2022/01/24 12:25:54;;;;;;;;;30.75;30.75;;;;;;;;4906544;28;45545;-76
2022/01/24 12:28:21;;;;;;;;;35.25;31.25;;;;;;;;4947449;28;45596;-77
2022/01/24 12:31:01;;;;;;;;;33.00;30.75;;;;;;;;4975394;28;46339;-75
2022/01/24 12:33:38;;;;;;;;;30.25;27.00;;;;;;;;4969889;28;45758;-80
2022/01/24 12:36:04;;;;;;;;;35.50;31.50;;;;;;;;4971797;28;45998;-74
2022/01/24 12:38:43;;;;;;;;;29.25;27.50;;;;;;;;4982237;28;45419;-79
2022/01/24 12:41:16;;;;;;;;;36.00;32.00;;;;;;;;5003425;28;45421;-79
2022/01/24 12:46:36;;;;;;;;;31.75;28.25;;;;;;;;4964057;28;45698;-79
2022/01/24 12:49:03;;;;;;;;;35.00;31.00;;;;;;;;4973304;28;45441;-74
2022/01/24 12:51:29;;;;;;;;;28.25;26.25;;;;;;;;4979997;28;46463;-75
2022/01/24 12:53:55;;;;;;;;;30.00;29.50;;;;;;;;4992790;28;45460;-76
2022/01/24 12:56:24;;;;;;;;;35.00;31.50;;;;;;;;4993557;28;45565;-84
2022/01/24 12:58:50;;;;;;;;;32.50;29.75;;;;;;;;4986809;28;45593;-78
2022/01/24 13:01:32;;;;;;;;;33.00;29.00;;;;;;;;4986303;28;46520;-76
2022/01/24 13:03:58;;;;;;;;;33.75;30.25;;;;;;;;4990067;28;45842;-75
2022/01/24 13:06:27;;;;;;;;;31.50;28.50;;;;;;;;4991851;28;45446;-74
2022/01/24 13:08:53;;;;;;;;;28.50;27.25;;;;;;;;4990797;28;45537;-75
2022/01/24 13:11:18;;;;;;;;;30.00;29.25;;;;;;;;4992494;28;46774;-75
2022/01/24 13:14:05;;;;;;;;;33.67;30.33;;;;;;;;4991841;28;45440;-81
2022/01/24 13:22:15;;;;;;;;;29.50;29.25;;;;;;;;4990440;28;45937;-86
2022/01/24 13:25:00;;;;;;;;;30.25;29.25;;;;;;;;4990276;28;45518;-75
2022/01/24 13:27:39;;;;;;;;;28.50;27.50;;;;;;;;4990165;28;45541;-76
2022/01/24 13:30:06;;;;;;;;;30.50;30.50;;;;;;;;4996373;28;45670;-80
2022/01/24 13:32:46;;;;;;;;;32.50;28.25;;;;;;;;4992910;28;47007;-74
2022/01/24 13:35:31;;;;;;;;;32.25;30.25;;;;;;;;5006718;28;45699;-77
2022/01/24 13:37:58;;;;;;;;;26.00;24.50;;;;;;;;5011344;28;45493;-78
2022/01/24 13:40:34;;;;;;;;;31.25;28.00;;;;;;;;5012528;28;45493;-77
2022/01/24 13:43:00;;;;;;;;;25.50;24.75;;;;;;;;4998152;28;46052;-75
2022/01/24 13:45:25;;;;;;;;;32.00;29.75;;;;;;;;4991849;28;45424;-76
2022/01/24 13:48:00;;;;;;;;;33.25;30.00;;;;;;;;4998667;28;45628;-77
2022/01/24 13:50:26;;;;;;;;;28.50;27.75;;;;;;;;4993948;28;45548;-79
2022/01/24 13:52:52;;;;;;;;;32.00;28.50;;;;;;;;5010338;28;45549;-81
2022/01/24 13:55:18;;;;;;;;;30.25;27.75;;;;;;;;5009968;28;45893;-78
2022/01/24 13:57:47;;;;;;;;;29.00;27.75;;;;;;;;4991092;28;45470;-84
2022/01/24 14:00:15;;;;;;;;;31.25;29.25;;;;;;;;4991395;28;45507;-77
2022/01/24 14:02:40;;;;;;;;;35.50;32.50;;;;;;;;4994978;28;45586;-85
2022/01/24 14:05:06;;;;;;;;;32.00;30.00;;;;;;;;4992660;28;45420;-75
2022/01/24 14:07:32;;;;;;;;;29.50;27.50;;;;;;;;4991021;28;45327;-81
2022/01/24 14:09:57;;;;;;;;;29.25;28.50;;;;;;;;4990943;28;45400;-76
2022/01/24 14:12:25;;;;;;;;;35.50;31.00;;;;;;;;4991827;28;46261;-75
2022/01/24 14:15:04;;;;;;;;;30.50;28.50;;;;;;;;4991136;28;45974;-80
2022/01/24 14:20:03;;;;;;;;;31.50;28.50;;;;;;;;4990772;28;45552;-76
2022/01/24 14:22:40;;;;;;;;;29.50;25.50;;;;;;;;4990925;28;45539;-75
2022/01/24 14:25:10;;;;;;;;;34.25;32.50;;;;;;;;4991099;28;45549;-75
2022/01/24 14:27:37;;;;;;;;;31.75;30.50;;;;;;;;4991234;28;45448;-76
2022/01/24 14:30:05;;;;;;;;;33.00;30.00;;;;;;;;4991481;28;45716;-74
2022/01/24 14:32:34;;;;;;;;;32.50;30.75;;;;;;;;4972642;28;47531;-75
2022/01/24 14:35:04;;;;;;;;;33.00;30.00;;;;;;;;4990857;28;45541;-74
2022/01/24 14:37:49;;;;;;;;;37.25;30.25;;;;;;;;4990771;28;45477;-75
2022/01/24 14:40:33;;;;;;;;;32.25;29.25;;;;;;;;4991295;28;45555;-81
2022/01/24 14:44:53;;;;;;;;;35.25;31.25;;;;;;;;4972975;28;47063;-75
2022/01/24 14:45:43;;;;;;;;;35.75;31.25;;;;;;;;4990151;28;45851;-75
2022/01/24 14:48:09;;;;;;;;;32.00;28.67;;;;;;;;4991127;28;45485;-76
2022/01/24 14:50:36;;;;;;;;;30.25;29.50;;;;;;;;4991041;28;45468;-78
2022/01/24 14:53:04;;;;;;;;;36.50;29.50;;;;;;;;4971669;28;48256;-83
2022/01/24 14:55:30;;;;;;;;;37.50;32.50;;;;;;;;4991325;28;45973;-80
2022/01/24 14:57:55;;;;;;;;;37.50;32.50;;;;;;;;4972461;28;45576;-76
2022/01/24 15:00:22;;;;;;;;;30.75;26.25;;;;;;;;4990625;28;45828;-74
2022/01/24 15:02:48;;;;;;;;;37.00;32.50;;;;;;;;4990247;28;46253;-77
2022/01/24 15:05:15;;;;;;;;;35.00;32.50;;;;;;;;4972315;28;45658;-75
2022/01/24 15:07:40;;;;;;;;;36.75;33.50;;;;;;;;4971841;28;45434;-79
2022/01/24 15:10:06;;;;;;;;;28.00;25.67;;;;;;;;4990946;28;45602;-83
2022/01/24 15:12:32;;;;;;;;;30.50;27.25;;;;;;;;4973085;28;47823;-80
2022/01/24 15:15:00;;;;;;;;;35.00;31.75;;;;;;;;4989108;28;45593;-79
2022/01/24 15:27:46;;;;;;;;;30.67;27.33;;;;;;;;4990486;28;45554;-81
2022/01/24 15:30:14;;;;;;;;;28.75;27.00;;;;;;;;4987548;28;45444;-80
2022/01/24 15:32:39;;;;;;;;;29.50;28.00;;;;;;;;4983325;28;45703;-80
2022/01/24 15:35:05;;;;;;;;;31.50;30.25;;;;;;;;4971206;28;45531;-81
2022/01/24 15:37:30;;;;;;;;;30.00;27.75;;;;;;;;4989767;28;45418;-76
2022/01/24 15:39:55;;;;;;;;;39.00;33.00;;;;;;;;4978290;28;45563;-83
2022/01/24 15:42:37;;;;;;;;;32.67;29.00;;;;;;;;4989779;28;46148;-82
2022/01/24 15:47:47;;;;;;;;;32.00;28.75;;;;;;;;4990589;28;45707;-81
2022/01/24 15:50:16;;;;;;;;;44.00;36.50;;;;;;;;4986083;28;45496;-83
2022/01/24 15:52:42;;;;;;;;;42.50;38.00;;;;;;;;4988503;28;46394;-79
2022/01/24 15:55:10;;;;;;;;;34.67;32.67;;;;;;;;4989948;28;45803;-80
2022/01/24 15:57:42;;;;;;;;;38.25;36.25;;;;;;;;4990132;28;45739;-79
2022/01/24 16:00:14;;;;;;;;;36.00;32.75;;;;;;;;4989572;28;45438;-81
2022/01/24 16:02:42;;;;;;;;;35.25;33.00;;;;;;;;4989960;28;45750;-76
2022/01/24 16:05:07;;;;;;;;;26.75;26.25;;;;;;;;4989427;28;45654;-76
2022/01/24 16:07:38;;;;;;;;;36.00;31.75;;;;;;;;4988989;28;45784;-80
2022/01/24 16:10:04;;;;;;;;;29.25;27.25;;;;;;;;4971647;28;46357;-78
2022/01/24 16:12:29;;;;;;;;;31.75;28.50;;;;;;;;4990227;28;45596;-77
2022/01/24 16:14:54;;;;;;;;;27.33;26.00;;;;;;;;4988982;28;45482;-81
2022/01/24 16:17:20;;;;;;;;;31.75;28.75;;;;;;;;4990315;28;45781;-83
2022/01/24 16:19:51;;;;;;;;;42.75;37.75;;;;;;;;4989531;28;45494;-76
2022/01/24 16:22:43;;;;;;;;;38.75;34.00;;;;;;;;4989077;28;45612;-79
2022/01/24 16:28:08;;;;;;;;;47.75;40.00;;;;;;;;4909052;28;45414;-82